Time;durP1;ratioP1;P1;durP2;ratioP2;P2;SDS_P1;SDS_P2;PMS_P1;PMS_P2;Temp;Humidity;BMP_temperature;BMP_pressure;BME280_temperature;BME280_humidity;BME280_pressure;Samples;Min_cycle;Max_cycle;Signal;HPM_P1;HPM_P2
2022/12/20 00:01:06;;;;;;;6.03;4.13;;;8.50;99.90;;;;;;5025997;28;20044;-83
2022/12/20 00:03:32;;;;;;;6.15;4.40;;;8.60;99.90;;;;;;5021974;28;20041;-84
2022/12/20 00:05:57;;;;;;;7.13;4.55;;;8.60;99.90;;;;;;5028541;28;20470;-84
2022/12/20 00:08:23;;;;;;;5.93;4.50;;;8.60;99.90;;;;;;4996404;28;20049;-83
2022/12/20 00:10:48;;;;;;;7.82;4.82;;;8.60;99.90;;;;;;5029226;28;20519;-83
2022/12/20 00:13:14;;;;;;;6.70;4.93;;;8.60;99.90;;;;;;5018721;28;20056;-83
2022/12/20 00:15:40;;;;;;;8.02;4.78;;;8.70;99.90;;;;;;5011153;28;20412;-83
2022/12/20 00:18:05;;;;;;;6.13;4.60;;;8.70;99.90;;;;;;5032527;28;20096;-84
2022/12/20 00:20:31;;;;;;;5.38;4.35;;;8.70;99.90;;;;;;5015849;28;20037;-83
2022/12/20 00:22:56;;;;;;;6.95;4.47;;;8.80;99.90;;;;;;5007959;28;20111;-84
2022/12/20 00:25:22;;;;;;;6.97;4.30;;;8.80;99.90;;;;;;5020352;28;20067;-83
2022/12/20 00:27:48;;;;;;;6.95;4.60;;;8.80;99.90;;;;;;5029283;28;20483;-84
2022/12/20 00:30:14;;;;;;;5.03;4.22;;;8.80;99.90;;;;;;5008338;28;20083;-83
2022/12/20 00:32:40;;;;;;;5.93;4.30;;;8.80;99.90;;;;;;5024800;28;20038;-83
2022/12/20 00:35:06;;;;;;;5.40;4.15;;;8.80;99.90;;;;;;5023266;28;20041;-83
2022/12/20 00:37:32;;;;;;;7.13;4.20;;;8.80;99.90;;;;;;5015682;28;20041;-83
2022/12/20 00:39:58;;;;;;;6.25;4.20;;;8.80;99.90;;;;;;5014811;28;20381;-83
2022/12/20 00:42:23;;;;;;;5.15;4.03;;;8.70;99.90;;;;;;5010617;28;20079;-83
2022/12/20 00:44:49;;;;;;;6.43;4.28;;;8.70;99.90;;;;;;5036222;28;20095;-83
2022/12/20 00:47:14;;;;;;;6.35;4.25;;;8.70;99.90;;;;;;5052518;28;20041;-83
2022/12/20 00:49:40;;;;;;;6.10;4.30;;;8.70;99.90;;;;;;5036204;28;20540;-83
2022/12/20 00:52:06;;;;;;;5.75;4.70;;;8.70;99.90;;;;;;5042150;28;20048;-83
2022/12/20 00:54:32;;;;;;;6.15;3.92;;;8.70;99.90;;;;;;5039573;28;20099;-83
2022/12/20 00:56:58;;;;;;;8.00;4.50;;;8.70;99.90;;;;;;5018588;28;20455;-84
2022/12/20 00:59:24;;;;;;;5.20;4.20;;;8.60;99.90;;;;;;5049693;28;20029;-83
2022/12/20 01:01:50;;;;;;;5.28;4.28;;;8.60;99.90;;;;;;5014592;28;21044;-84
2022/12/20 01:04:15;;;;;;;5.75;4.22;;;8.60;99.90;;;;;;5039070;28;20033;-83
2022/12/20 01:06:41;;;;;;;8.05;4.90;;;8.60;99.90;;;;;;5011416;28;20056;-84
2022/12/20 01:09:06;;;;;;;5.30;4.05;;;8.60;99.90;;;;;;5023190;28;20064;-84
2022/12/20 01:11:35;;;;;;;5.07;4.03;;;8.60;99.90;;;;;;5012874;28;20041;-84
2022/12/20 01:14:05;;;;;;;6.10;4.05;;;8.60;99.90;;;;;;5027491;28;20029;-84
2022/12/20 01:16:34;;;;;;;5.70;4.10;;;8.60;99.90;;;;;;5048089;28;20098;-83
2022/12/20 01:19:00;;;;;;;4.90;4.18;;;8.60;99.90;;;;;;5032542;28;20502;-83
2022/12/20 01:21:27;;;;;;;4.63;3.85;;;8.60;99.90;;;;;;5031689;28;20041;-84
2022/12/20 01:23:53;;;;;;;5.60;3.97;;;8.70;99.90;;;;;;5026471;28;20048;-84
2022/12/20 01:26:21;;;;;;;4.70;3.83;;;8.70;99.90;;;;;;5037075;28;20525;-84
2022/12/20 01:28:48;;;;;;;7.55;3.97;;;8.70;99.90;;;;;;5052817;28;20120;-83
2022/12/20 01:31:16;;;;;;;6.85;4.68;;;8.80;99.90;;;;;;5051252;28;20147;-84
2022/12/20 01:33:43;;;;;;;4.38;3.70;;;8.80;99.90;;;;;;5024647;28;20052;-84
2022/12/20 01:36:12;;;;;;;4.85;3.80;;;8.80;99.90;;;;;;5025521;28;20037;-84
2022/12/20 01:38:38;;;;;;;4.75;3.70;;;8.80;99.90;;;;;;5034062;28;20037;-84
2022/12/20 01:41:04;;;;;;;4.30;3.90;;;8.80;99.90;;;;;;5018461;28;20044;-84
2022/12/20 01:44:25;;;;;;;6.20;3.90;;;8.80;99.90;;;;;;5035037;28;20034;-84
2022/12/20 01:46:52;;;;;;;4.78;3.67;;;8.80;99.90;;;;;;4994556;28;20165;-84
2022/12/20 01:49:45;;;;;;;5.30;4.35;;;8.80;99.90;;;;;;5018737;28;20454;-84
2022/12/20 01:52:12;;;;;;;5.82;3.80;;;8.80;99.90;;;;;;5022871;28;20098;-84
2022/12/20 01:54:55;;;;;;;4.63;3.60;;;8.80;99.90;;;;;;5047045;28;20096;-85
2022/12/20 01:57:26;;;;;;;4.60;3.75;;;8.90;99.90;;;;;;5055049;28;20051;-86
2022/12/20 01:59:52;;;;;;;4.72;3.80;;;8.90;99.90;;;;;;5046227;28;20037;-85
2022/12/20 02:02:18;;;;;;;5.45;3.70;;;9.00;99.90;;;;;;5050673;28;20068;-84
2022/12/20 02:04:44;;;;;;;4.45;3.60;;;9.00;99.90;;;;;;5036695;28;20040;-85
2022/12/20 02:07:14;;;;;;;5.22;3.47;;;9.00;99.90;;;;;;5051188;28;20041;-84
2022/12/20 02:09:40;;;;;;;5.15;3.65;;;9.10;99.90;;;;;;5042090;28;20114;-85
2022/12/20 02:12:35;;;;;;;5.80;3.50;;;9.10;99.90;;;;;;5022669;28;20483;-85
2022/12/20 02:15:33;;;;;;;6.45;4.15;;;9.10;99.90;;;;;;5003735;28;20052;-84
2022/12/20 02:18:22;;;;;;;4.47;3.78;;;9.20;99.90;;;;;;5013072;28;20053;-84
2022/12/20 02:20:59;;;;;;;6.30;3.70;;;9.20;99.90;;;;;;5024211;28;20067;-84
2022/12/20 02:23:41;;;;;;;4.35;3.60;;;9.20;99.90;;;;;;5043050;28;20045;-85
2022/12/20 02:26:38;;;;;;;4.03;3.63;;;9.20;99.90;;;;;;5029148;28;20090;-84
2022/12/20 02:29:21;;;;;;;4.78;4.00;;;9.20;99.90;;;;;;5020974;28;20041;-83
2022/12/20 02:32:07;;;;;;;4.65;3.65;;;9.20;99.90;;;;;;5032703;28;20048;-83
2022/12/20 02:34:35;;;;;;;6.65;3.83;;;9.20;99.90;;;;;;5040504;28;20037;-83
2022/12/20 02:37:01;;;;;;;6.25;4.07;;;9.10;99.90;;;;;;5042597;28;20127;-82
2022/12/20 02:39:30;;;;;;;5.05;4.10;;;9.10;99.90;;;;;;5026586;28;20117;-82
2022/12/20 02:42:18;;;;;;;5.82;4.38;;;9.10;99.90;;;;;;5043972;28;20229;-82
2022/12/20 02:45:15;;;;;;;5.72;4.63;;;9.00;99.90;;;;;;5025285;28;20041;-82
2022/12/20 02:48:08;;;;;;;8.13;4.78;;;9.00;99.90;;;;;;5053540;28;20037;-81
2022/12/20 02:50:42;;;;;;;7.57;4.97;;;9.00;99.90;;;;;;5033363;28;20132;-82
2022/12/20 02:53:08;;;;;;;6.20;4.90;;;8.90;99.90;;;;;;5023879;28;20073;-81
2022/12/20 02:55:59;;;;;;;7.57;5.25;;;8.90;99.90;;;;;;5041113;28;20037;-81
2022/12/20 02:58:36;;;;;;;7.25;5.53;;;8.90;99.90;;;;;;5050812;28;20033;-81
2022/12/20 03:01:07;;;;;;;6.35;5.13;;;8.90;99.90;;;;;;5045117;28;20428;-81
2022/12/20 03:03:34;;;;;;;6.53;4.85;;;8.80;99.90;;;;;;5026795;28;20075;-80
2022/12/20 03:06:00;;;;;;;6.55;5.15;;;8.80;99.90;;;;;;5044436;28;20045;-81
2022/12/20 03:08:26;;;;;;;6.07;5.22;;;8.80;99.90;;;;;;5051015;28;20094;-81
2022/12/20 03:10:53;;;;;;;7.45;6.10;;;8.80;99.90;;;;;;5041303;28;20056;-81
2022/12/20 03:13:20;;;;;;;6.47;5.57;;;8.80;99.90;;;;;;5038059;28;20045;-81
2022/12/20 03:15:46;;;;;;;6.75;5.40;;;8.80;99.90;;;;;;5032124;28;20043;-81
2022/12/20 03:18:11;;;;;;;8.57;5.53;;;8.80;99.90;;;;;;5038088;28;20554;-81
2022/12/20 03:20:37;;;;;;;8.63;6.05;;;8.80;99.90;;;;;;5027992;28;20037;-82
2022/12/20 03:23:03;;;;;;;8.63;5.60;;;8.80;99.90;;;;;;5048596;28;20507;-82
2022/12/20 03:25:29;;;;;;;5.85;5.07;;;8.80;99.90;;;;;;5024128;28;20044;-82
2022/12/20 03:27:54;;;;;;;7.45;5.43;;;8.80;99.90;;;;;;5035104;28;20051;-82
2022/12/20 03:30:20;;;;;;;8.00;5.45;;;8.80;99.90;;;;;;5048332;28;20048;-82
2022/12/20 03:32:46;;;;;;;8.55;5.40;;;8.70;99.90;;;;;;5023918;28;20115;-81
2022/12/20 03:35:11;;;;;;;8.90;6.13;;;8.80;99.90;;;;;;5029595;28;20036;-82
2022/12/20 03:37:37;;;;;;;9.00;5.60;;;8.80;99.90;;;;;;5052416;28;20033;-82
2022/12/20 03:40:04;;;;;;;5.72;5.13;;;8.80;99.90;;;;;;5029550;28;20083;-82
2022/12/20 03:42:29;;;;;;;8.85;5.65;;;8.70;99.90;;;;;;5042079;28;20037;-82
2022/12/20 03:44:55;;;;;;;7.18;5.50;;;8.80;99.90;;;;;;5042577;28;20047;-82
2022/12/20 03:47:21;;;;;;;7.47;5.47;;;8.80;99.90;;;;;;5052480;28;20087;-82
2022/12/20 03:49:46;;;;;;;8.18;6.18;;;8.80;99.90;;;;;;5031001;28;20037;-82
2022/12/20 03:52:13;;;;;;;8.98;6.40;;;8.80;99.90;;;;;;5028084;28;20045;-82
2022/12/20 03:54:39;;;;;;;7.68;6.18;;;8.80;99.90;;;;;;5027624;28;20040;-82
2022/12/20 03:57:05;;;;;;;8.27;6.28;;;8.80;99.90;;;;;;5052922;28;20045;-82
2022/12/20 03:59:30;;;;;;;7.95;5.93;;;8.80;99.90;;;;;;5020940;28;20038;-82
2022/12/20 04:01:56;;;;;;;7.43;5.80;;;8.80;99.90;;;;;;5035007;28;20037;-82
2022/12/20 04:04:22;;;;;;;7.25;6.03;;;8.80;99.90;;;;;;5032566;28;20503;-82
2022/12/20 04:06:47;;;;;;;9.13;6.55;;;8.90;99.90;;;;;;5026083;28;20503;-82
2022/12/20 04:09:14;;;;;;;7.72;6.15;;;8.90;99.90;;;;;;5030667;28;20096;-82
2022/12/20 04:11:39;;;;;;;7.85;5.93;;;8.90;99.90;;;;;;5035362;28;20120;-81
2022/12/20 04:14:05;;;;;;;7.57;6.43;;;8.90;99.90;;;;;;5036007;28;20182;-82
2022/12/20 04:16:31;;;;;;;7.40;6.10;;;8.80;99.90;;;;;;5051851;28;20041;-82
2022/12/20 04:18:57;;;;;;;7.68;6.40;;;8.90;99.90;;;;;;5033859;28;20036;-81
2022/12/20 04:21:28;;;;;;;9.32;6.07;;;8.90;99.90;;;;;;5035390;28;20037;-82
2022/12/20 04:23:54;;;;;;;8.38;6.45;;;8.90;99.90;;;;;;5051767;28;20044;-82
2022/12/20 04:26:20;;;;;;;10.05;6.28;;;8.90;99.90;;;;;;5035189;28;20041;-82
2022/12/20 04:28:46;;;;;;;8.40;5.95;;;8.80;99.90;;;;;;5030079;28;20120;-82
2022/12/20 04:31:11;;;;;;;8.98;6.20;;;8.90;99.90;;;;;;5031775;28;20124;-82
2022/12/20 04:33:37;;;;;;;8.02;5.85;;;8.90;99.90;;;;;;5030432;28;20480;-83
2022/12/20 04:36:04;;;;;;;8.60;5.97;;;8.90;99.90;;;;;;5015549;28;20048;-82
2022/12/20 04:38:29;;;;;;;9.88;5.85;;;8.90;99.90;;;;;;5015551;28;20128;-83
2022/12/20 04:40:56;;;;;;;8.13;5.78;;;9.00;99.90;;;;;;5015689;28;20069;-83
2022/12/20 04:43:22;;;;;;;7.03;5.50;;;9.00;99.90;;;;;;5034616;28;20083;-82
2022/12/20 04:45:51;;;;;;;6.30;5.25;;;9.00;99.90;;;;;;5033744;28;20412;-82
2022/12/20 04:48:17;;;;;;;8.93;6.22;;;9.00;99.90;;;;;;5046892;28;20037;-82
2022/12/20 04:50:47;;;;;;;7.40;5.50;;;9.00;99.90;;;;;;5053190;28;20466;-82
2022/12/20 04:55:57;;;;;;;8.23;5.22;;;9.10;99.90;;;;;;5042784;28;20462;-82
2022/12/20 04:58:23;;;;;;;9.07;5.65;;;9.10;99.90;;;;;;5043419;28;20029;-82
2022/12/20 05:00:51;;;;;;;7.30;5.05;;;9.10;99.90;;;;;;5051050;28;20032;-82
2022/12/20 05:03:20;;;;;;;7.80;5.13;;;9.10;99.90;;;;;;5034531;28;20044;-82
2022/12/20 05:05:46;;;;;;;6.93;5.05;;;9.20;99.90;;;;;;5046306;28;20041;-84
2022/12/20 05:08:12;;;;;;;7.22;5.18;;;9.20;99.90;;;;;;5045995;28;20055;-82
2022/12/20 05:10:38;;;;;;;6.05;4.07;;;9.20;99.90;;;;;;5035296;28;20036;-82
2022/12/20 05:13:03;;;;;;;5.95;4.55;;;9.20;99.90;;;;;;5049780;28;20040;-82
2022/12/20 05:15:29;;;;;;;5.70;4.45;;;9.30;99.90;;;;;;5032747;28;20048;-83
2022/12/20 05:17:58;;;;;;;6.18;4.80;;;9.30;99.90;;;;;;5026096;28;20557;-82
2022/12/20 05:20:25;;;;;;;6.10;4.50;;;9.30;99.90;;;;;;5049219;28;20499;-83
2022/12/20 05:28:29;;;;;;;4.90;4.18;;;9.40;99.90;;;;;;5032081;28;20128;-83
2022/12/20 05:30:55;;;;;;;6.75;4.50;;;9.40;99.90;;;;;;5046235;28;20543;-82
2022/12/20 05:33:21;;;;;;;6.72;4.55;;;9.40;99.90;;;;;;5049607;28;20129;-82
2022/12/20 05:35:46;;;;;;;7.50;4.60;;;9.40;99.90;;;;;;5034401;28;20064;-82
2022/12/20 05:38:12;;;;;;;5.70;4.05;;;9.40;99.90;;;;;;5051397;28;20045;-82
2022/12/20 05:40:39;;;;;;;6.18;4.45;;;9.40;99.90;;;;;;5050513;28;20470;-82
2022/12/20 05:43:05;;;;;;;5.88;4.32;;;9.50;99.90;;;;;;5034308;28;20029;-83
2022/12/20 05:45:31;;;;;;;6.40;4.57;;;9.50;99.90;;;;;;5052333;28;20059;-83
2022/12/20 05:47:57;;;;;;;6.00;4.40;;;9.50;99.90;;;;;;5050349;28;20043;-84
2022/12/20 05:50:22;;;;;;;5.88;4.18;;;9.50;99.90;;;;;;5037701;28;20045;-83
2022/12/20 05:52:48;;;;;;;6.25;4.70;;;9.50;99.90;;;;;;5033711;28;20045;-84
2022/12/20 05:55:14;;;;;;;5.32;3.80;;;9.50;99.90;;;;;;5052980;28;20025;-84
2022/12/20 05:57:39;;;;;;;5.22;4.20;;;9.60;99.90;;;;;;5055130;28;20048;-83
2022/12/20 06:00:06;;;;;;;6.90;4.47;;;9.60;99.90;;;;;;5052126;28;20475;-84
2022/12/20 06:02:31;;;;;;;6.50;4.40;;;9.70;99.90;;;;;;5037511;28;20064;-84
2022/12/20 06:04:57;;;;;;;6.60;4.40;;;9.70;99.90;;;;;;5037380;28;20126;-83
2022/12/20 06:07:24;;;;;;;5.05;3.88;;;9.80;99.90;;;;;;5038031;28;20577;-84
2022/12/20 06:09:49;;;;;;;5.32;4.07;;;9.70;99.90;;;;;;5048647;28;20414;-83
2022/12/20 06:12:15;;;;;;;5.95;4.07;;;9.70;99.90;;;;;;5054421;28;20037;-83
2022/12/20 06:14:41;;;;;;;5.43;4.53;;;9.80;99.90;;;;;;5029256;28;20183;-83
2022/12/20 06:17:06;;;;;;;6.47;4.78;;;9.80;99.90;;;;;;5035055;28;20041;-83
2022/12/20 06:19:32;;;;;;;5.78;4.50;;;9.80;99.90;;;;;;5048627;28;20065;-83
2022/12/20 06:21:58;;;;;;;5.75;4.68;;;9.80;99.90;;;;;;5037700;28;20044;-83
2022/12/20 06:24:26;;;;;;;7.70;5.10;;;9.70;99.90;;;;;;5050755;28;20048;-82
2022/12/20 06:26:52;;;;;;;6.95;5.20;;;9.70;99.90;;;;;;5037733;28;20098;-83
2022/12/20 06:29:19;;;;;;;7.35;5.57;;;9.70;99.90;;;;;;5033762;28;20037;-82
2022/12/20 06:31:48;;;;;;;8.63;5.88;;;9.60;99.90;;;;;;5030960;28;20044;-82
2022/12/20 06:34:14;;;;;;;6.80;5.88;;;9.60;99.90;;;;;;5048327;28;20037;-82
2022/12/20 06:36:40;;;;;;;9.25;6.40;;;9.60;99.90;;;;;;5034270;28;20056;-82
2022/12/20 06:39:08;;;;;;;8.55;6.35;;;9.60;99.90;;;;;;5050006;28;20029;-83
2022/12/20 06:41:34;;;;;;;7.50;6.18;;;9.50;99.90;;;;;;5035897;28;20033;-82
2022/12/20 06:43:59;;;;;;;10.43;6.57;;;9.50;99.90;;;;;;5030812;28;20486;-80
2022/12/20 06:46:26;;;;;;;7.25;6.55;;;9.50;99.90;;;;;;5038427;28;20128;-82
2022/12/20 06:48:52;;;;;;;9.38;6.50;;;9.50;99.90;;;;;;5018666;28;20048;-81
2022/12/20 06:51:17;;;;;;;10.35;7.15;;;9.50;99.90;;;;;;5047235;28;20033;-81
2022/12/20 06:53:43;;;;;;;9.52;6.30;;;9.50;99.90;;;;;;5041440;28;20044;-81
2022/12/20 06:56:09;;;;;;;7.97;6.70;;;9.50;99.90;;;;;;5043388;28;20044;-83
2022/12/20 06:58:34;;;;;;;9.32;6.82;;;9.40;99.90;;;;;;5043825;28;20037;-81
2022/12/20 07:01:00;;;;;;;9.65;6.88;;;9.50;99.90;;;;;;5041938;28;20395;-79
2022/12/20 07:03:26;;;;;;;7.93;6.78;;;9.50;99.90;;;;;;5045314;28;20056;-82
2022/12/20 07:05:53;;;;;;;9.45;7.03;;;9.50;99.90;;;;;;5049436;28;20040;-82
2022/12/20 07:08:19;;;;;;;9.90;6.90;;;9.50;99.90;;;;;;5053667;28;20045;-80
2022/12/20 07:10:45;;;;;;;7.75;6.65;;;9.50;99.90;;;;;;5040527;28;20040;-81
2022/12/20 07:13:11;;;;;;;8.63;7.50;;;9.50;99.90;;;;;;5058295;28;20040;-82
2022/12/20 07:15:36;;;;;;;8.95;6.35;;;9.50;99.90;;;;;;5061781;28;20034;-82
2022/12/20 07:18:02;;;;;;;10.13;7.38;;;9.50;99.90;;;;;;5043581;28;20041;-82
2022/12/20 07:20:28;;;;;;;9.65;7.20;;;9.50;99.90;;;;;;5053053;28;20040;-79
2022/12/20 07:22:54;;;;;;;8.00;7.20;;;9.50;99.90;;;;;;5038544;28;20068;-86
2022/12/20 07:25:20;;;;;;;7.35;6.57;;;9.50;99.90;;;;;;5037923;28;20037;-85
2022/12/20 07:27:48;;;;;;;9.32;7.05;;;9.50;99.90;;;;;;5036937;28;20449;-85
2022/12/20 07:30:14;;;;;;;10.43;6.57;;;9.60;99.90;;;;;;5048872;28;20044;-85
2022/12/20 07:32:40;;;;;;;9.50;6.55;;;9.50;99.90;;;;;;5028406;28;20036;-84
2022/12/20 07:35:06;;;;;;;9.05;6.50;;;9.50;99.90;;;;;;5037145;28;20037;-84
2022/12/20 07:37:32;;;;;;;9.07;6.22;;;9.50;99.90;;;;;;5034109;28;20049;-84
2022/12/20 07:39:57;;;;;;;6.63;5.80;;;9.50;99.90;;;;;;5045671;28;20044;-83
2022/12/20 07:42:23;;;;;;;8.50;5.95;;;9.50;99.90;;;;;;5046183;28;20040;-83
2022/12/20 07:44:49;;;;;;;7.40;5.75;;;9.40;99.90;;;;;;5049654;28;20159;-86
2022/12/20 07:47:14;;;;;;;8.35;6.63;;;9.50;99.90;;;;;;5036041;28;20041;-83
2022/12/20 07:49:40;;;;;;;6.40;5.47;;;9.50;99.90;;;;;;5037356;28;20075;-83
2022/12/20 07:52:07;;;;;;;6.90;5.80;;;9.50;99.90;;;;;;5037147;28;20037;-83
2022/12/20 07:54:44;;;;;;;6.43;5.00;;;9.50;99.90;;;;;;5053309;28;20029;-82
2022/12/20 07:57:16;;;;;;;7.05;5.65;;;9.50;99.90;;;;;;5053721;28;20041;-83
2022/12/20 07:59:48;;;;;;;6.13;5.40;;;9.50;99.90;;;;;;5054843;28;20048;-83
2022/12/20 08:02:24;;;;;;;7.60;5.03;;;9.50;99.90;;;;;;5037637;28;20287;-83
2022/12/20 08:04:51;;;;;;;6.15;5.00;;;9.50;99.90;;;;;;5053939;28;20103;-83
2022/12/20 08:07:16;;;;;;;7.30;4.90;;;9.50;99.90;;;;;;5029976;28;20068;-83
2022/12/20 08:09:44;;;;;;;7.13;4.60;;;9.50;99.90;;;;;;5034877;28;20530;-81
2022/12/20 08:12:12;;;;;;;6.80;4.53;;;9.50;99.90;;;;;;5048560;28;20407;-81
2022/12/20 08:14:39;;;;;;;6.90;4.80;;;9.50;99.90;;;;;;5044279;28;20504;-85
2022/12/20 08:17:04;;;;;;;5.10;4.47;;;9.50;99.90;;;;;;5048256;28;20091;-84
2022/12/20 08:19:30;;;;;;;5.93;4.70;;;9.60;99.90;;;;;;5035742;28;20037;-79
2022/12/20 08:21:55;;;;;;;6.35;4.22;;;9.60;99.90;;;;;;5055557;28;20040;-82
2022/12/20 08:24:21;;;;;;;6.05;4.53;;;9.60;99.90;;;;;;5054877;28;20040;-82
2022/12/20 08:26:47;;;;;;;7.05;4.30;;;9.60;99.90;;;;;;5052445;28;20036;-81
2022/12/20 08:29:12;;;;;;;7.38;4.47;;;9.60;99.90;;;;;;5053880;28;20059;-85
2022/12/20 08:31:39;;;;;;;6.18;4.00;;;9.70;99.90;;;;;;5049349;28;20045;-86
2022/12/20 08:34:05;;;;;;;6.88;3.85;;;9.70;99.90;;;;;;5032842;28;20037;-86
2022/12/20 08:36:31;;;;;;;5.63;3.78;;;9.70;99.90;;;;;;5025073;28;20029;-86
2022/12/20 08:38:57;;;;;;;6.63;3.60;;;9.80;99.90;;;;;;5044590;28;20472;-84
2022/12/20 08:41:22;;;;;;;6.10;3.85;;;9.80;99.90;;;;;;5025960;28;20040;-83
2022/12/20 08:43:48;;;;;;;5.55;3.70;;;9.90;99.90;;;;;;5041606;28;20572;-81
2022/12/20 08:46:14;;;;;;;5.68;3.80;;;9.80;99.90;;;;;;5041027;28;20037;-80
2022/12/20 08:48:39;;;;;;;7.32;3.40;;;9.90;99.90;;;;;;5047975;28;20041;-82
2022/12/20 08:51:07;;;;;;;5.93;3.85;;;9.90;99.90;;;;;;5022242;28;20502;-84
2022/12/20 08:53:34;;;;;;;5.40;3.40;;;10.00;99.90;;;;;;5045225;28;20526;-81
2022/12/20 08:56:07;;;;;;;5.32;3.50;;;9.90;99.90;;;;;;5040037;28;20040;-80
2022/12/20 08:58:34;;;;;;;4.45;3.42;;;10.00;99.90;;;;;;5038167;28;20048;-80
2022/12/20 09:01:00;;;;;;;5.40;3.30;;;9.90;99.90;;;;;;5046999;28;20058;-81
2022/12/20 09:03:29;;;;;;;6.45;3.53;;;9.90;99.90;;;;;;5039736;28;20549;-81
2022/12/20 09:05:54;;;;;;;4.25;3.70;;;9.90;99.90;;;;;;5039788;28;20041;-82
2022/12/20 09:08:20;;;;;;;5.93;3.50;;;10.00;99.90;;;;;;5039067;28;20041;-81
2022/12/20 09:10:45;;;;;;;5.82;3.58;;;10.00;99.90;;;;;;5021621;28;20456;-83
2022/12/20 09:13:11;;;;;;;6.32;4.05;;;9.90;99.90;;;;;;5040503;28;20092;-80
2022/12/20 09:15:37;;;;;;;5.72;3.33;;;9.90;99.90;;;;;;5048985;28;20129;-81
2022/12/20 09:18:03;;;;;;;4.45;3.75;;;9.90;99.90;;;;;;5043236;28;20071;-79
2022/12/20 09:20:28;;;;;;;5.75;3.65;;;9.90;99.90;;;;;;5031724;28;20033;-78
2022/12/20 09:22:54;;;;;;;6.35;4.18;;;9.80;99.90;;;;;;5038092;28;20040;-82
2022/12/20 09:25:20;;;;;;;7.03;4.03;;;9.80;99.90;;;;;;5021394;28;20038;-79
2022/12/20 09:27:46;;;;;;;6.03;4.03;;;9.80;99.90;;;;;;5042423;28;20045;-83
2022/12/20 09:30:12;;;;;;;4.80;3.45;;;9.80;99.90;;;;;;5022985;28;20041;-82
2022/12/20 09:35:08;;;;;;;6.68;4.00;;;9.80;99.90;;;;;;5006432;28;20046;-75
2022/12/20 09:37:34;;;;;;;6.78;4.00;;;9.80;99.90;;;;;;4988709;28;20455;-76
2022/12/20 09:40:00;;;;;;;5.18;3.78;;;9.80;99.90;;;;;;4989087;28;20284;-76
2022/12/20 09:42:29;;;;;;;6.45;3.75;;;9.80;99.90;;;;;;4987700;28;20065;-76
2022/12/20 09:45:09;;;;;;;5.00;4.00;;;9.70;99.90;;;;;;4990030;28;20569;-77
2022/12/20 09:47:38;;;;;;;4.85;3.45;;;9.70;99.90;;;;;;4996831;28;20044;-77
2022/12/20 09:50:41;;;;;;;5.13;3.50;;;9.70;99.90;;;;;;5002490;28;20042;-78
2022/12/20 09:53:53;;;;;;;6.45;4.13;;;9.70;99.90;;;;;;4985300;28;20037;-77
2022/12/20 09:56:48;;;;;;;5.65;3.97;;;9.70;99.90;;;;;;4918775;28;20046;-77
2022/12/20 09:59:23;;;;;;;7.90;4.35;;;9.70;99.90;;;;;;4978687;28;20049;-77
2022/12/20 10:01:50;;;;;;;6.50;4.32;;;9.70;99.90;;;;;;4988324;28;20054;-78
2022/12/20 10:04:44;;;;;;;4.85;3.80;;;9.60;99.90;;;;;;4988494;28;20496;-79
2022/12/20 10:07:53;;;;;;;6.07;4.47;;;9.60;99.90;;;;;;4991008;28;20045;-77
2022/12/20 10:11:18;;;;;;;5.20;4.25;;;9.50;99.90;;;;;;5004412;28;20034;-77
2022/12/20 10:14:31;;;;;;;9.57;4.28;;;9.50;99.90;;;;;;5007757;28;20331;-76
2022/12/20 10:17:39;;;;;;;6.78;4.78;;;9.50;99.90;;;;;;5000845;28;20045;-77
2022/12/20 10:20:19;;;;;;;8.20;4.90;;;9.50;99.90;;;;;;4999224;28;20065;-77
2022/12/20 10:23:02;;;;;;;8.25;4.53;;;9.40;99.90;;;;;;5002808;28;20038;-76
2022/12/20 10:25:39;;;;;;;6.28;4.80;;;9.40;99.90;;;;;;5001420;28;20425;-77
2022/12/20 10:31:33;;;;;;;7.13;4.47;;;9.40;99.90;;;;;;5014101;28;20493;-77
2022/12/20 10:34:27;;;;;;;9.13;5.03;;;9.40;99.90;;;;;;5004313;28;20116;-77
2022/12/20 10:37:19;;;;;;;7.60;4.53;;;9.40;99.90;;;;;;4995878;28;20385;-77
2022/12/20 10:40:05;;;;;;;7.55;4.85;;;9.40;99.90;;;;;;5002255;28;20037;-77
2022/12/20 10:42:47;;;;;;;8.68;5.65;;;9.40;99.90;;;;;;4996861;28;20461;-78
2022/12/20 10:45:35;;;;;;;10.95;5.20;;;9.50;99.90;;;;;;4998200;28;20033;-77
2022/12/20 10:48:10;;;;;;;8.18;4.93;;;9.50;99.90;;;;;;5007509;28;20037;-77
2022/12/20 10:50:41;;;;;;;9.20;5.53;;;9.40;99.90;;;;;;5002902;28;20502;-77
2022/12/20 10:53:33;;;;;;;5.65;4.82;;;9.60;99.90;;;;;;5014206;28;20099;-77
2022/12/20 10:56:37;;;;;;;9.27;5.47;;;9.50;99.90;;;;;;5013928;28;20120;-77
2022/12/20 10:59:55;;;;;;;8.52;5.70;;;9.60;99.90;;;;;;5009093;28;20125;-77
2022/12/20 11:02:40;;;;;;;9.25;6.03;;;9.60;99.90;;;;;;5010854;28;20038;-78
2022/12/20 11:05:44;;;;;;;7.82;4.95;;;9.60;99.90;;;;;;5002343;28;20137;-78
2022/12/20 11:08:29;;;;;;;6.57;5.75;;;9.70;99.90;;;;;;4990039;28;20046;-78
2022/12/20 11:11:26;;;;;;;9.85;5.72;;;9.60;99.90;;;;;;4999473;28;20404;-78
2022/12/20 11:14:21;;;;;;;6.97;5.57;;;9.70;99.90;;;;;;5008839;28;20030;-76
2022/12/20 11:17:17;;;;;;;9.50;5.78;;;9.70;99.90;;;;;;5008128;28;20049;-77
2022/12/20 11:20:04;;;;;;;6.95;6.00;;;9.70;99.90;;;;;;4984321;28;20045;-77
2022/12/20 11:23:00;;;;;;;7.18;5.30;;;9.70;99.90;;;;;;5000261;28;20038;-78
2022/12/20 11:25:53;;;;;;;9.57;5.35;;;9.80;99.90;;;;;;5005207;28;20037;-78
2022/12/20 11:29:05;;;;;;;6.55;5.07;;;9.80;99.90;;;;;;4998753;28;20137;-77
2022/12/20 11:31:55;;;;;;;6.53;4.70;;;9.70;99.90;;;;;;5006770;28;20041;-77
2022/12/20 11:35:05;;;;;;;8.88;5.78;;;9.80;99.90;;;;;;4999562;28;20116;-77
2022/12/20 11:37:43;;;;;;;8.00;5.60;;;9.80;99.90;;;;;;5011107;28;20056;-77
2022/12/20 11:44:31;;;;;;;10.88;5.90;;;9.80;99.90;;;;;;5032065;23;20689;-77
2022/12/20 11:47:24;;;;;;;8.80;5.63;;;9.80;99.90;;;;;;4998024;28;20442;-77
2022/12/20 11:49:55;;;;;;;8.37;5.97;;;9.70;99.90;;;;;;4992501;28;20076;-76
2022/12/20 11:53:02;;;;;;;10.60;5.63;;;9.70;99.90;;;;;;4994656;28;20126;-76
2022/12/20 11:55:37;;;;;;;7.55;5.68;;;9.70;99.90;;;;;;4953200;28;20042;-76
2022/12/20 11:58:14;;;;;;;6.78;5.40;;;9.70;99.90;;;;;;5010975;23;20467;-79
2022/12/20 12:00:43;;;;;;;8.45;6.30;;;9.70;99.90;;;;;;5009801;28;20088;-80
2022/12/20 12:03:27;;;;;;;8.43;5.95;;;9.70;99.90;;;;;;4999807;28;20052;-79
2022/12/20 12:05:58;;;;;;;9.02;6.43;;;9.70;99.90;;;;;;5008407;28;20034;-80
2022/12/20 12:08:48;;;;;;;9.52;6.07;;;9.70;99.90;;;;;;4979693;28;20052;-79
2022/12/20 12:11:14;;;;;;;9.43;5.82;;;9.70;99.90;;;;;;4939532;28;20559;-79
2022/12/20 12:13:41;;;;;;;8.35;6.05;;;9.70;99.90;;;;;;4978004;28;20042;-79
2022/12/20 12:16:24;;;;;;;8.13;5.93;;;9.70;99.90;;;;;;4994215;28;20045;-79
2022/12/20 12:18:51;;;;;;;7.95;5.78;;;9.70;99.90;;;;;;4995952;28;20041;-78
2022/12/20 12:21:24;;;;;;;8.50;6.20;;;9.70;99.90;;;;;;4978903;28;20530;-78
2022/12/20 12:24:07;;;;;;;8.75;6.40;;;9.70;99.90;;;;;;5011724;28;20046;-79
2022/12/20 12:26:35;;;;;;;7.55;6.30;;;9.70;99.90;;;;;;4988089;28;20083;-78
2022/12/20 12:29:11;;;;;;;8.07;6.55;;;9.70;99.90;;;;;;4994906;28;20033;-79
2022/12/20 12:31:52;;;;;;;9.55;6.40;;;9.70;99.90;;;;;;5006074;28;20132;-81
2022/12/20 12:34:39;;;;;;;9.48;6.72;;;9.80;99.90;;;;;;4979208;28;20038;-81
2022/12/20 12:37:23;;;;;;;9.10;6.78;;;9.70;99.90;;;;;;4972380;28;20042;-80
2022/12/20 12:40:16;;;;;;;9.38;7.05;;;9.80;99.90;;;;;;4990760;28;20037;-82
2022/12/20 12:42:51;;;;;;;10.52;7.68;;;9.80;99.90;;;;;;4988855;28;20043;-79
2022/12/20 12:45:40;;;;;;;9.43;7.32;;;9.80;99.90;;;;;;4995014;28;20092;-79
2022/12/20 12:48:13;;;;;;;10.95;7.25;;;9.80;99.90;;;;;;5004064;28;20056;-79
2022/12/20 12:50:44;;;;;;;9.52;6.88;;;9.80;99.90;;;;;;4987700;28;20091;-79
2022/12/20 12:53:31;;;;;;;10.27;7.57;;;9.80;99.90;;;;;;4976478;28;20315;-79
2022/12/20 12:55:57;;;;;;;12.18;8.00;;;9.80;99.90;;;;;;4993267;28;20048;-78
2022/12/20 12:58:22;;;;;;;10.52;7.80;;;9.80;99.90;;;;;;4979305;28;20048;-78
2022/12/20 13:01:34;;;;;;;10.10;8.18;;;9.80;99.90;;;;;;4982264;28;20049;-79
2022/12/20 13:04:00;;;;;;;13.48;8.40;;;9.80;99.90;;;;;;4976313;28;20554;-78
2022/12/20 13:06:26;;;;;;;10.45;8.20;;;9.80;99.90;;;;;;4970604;28;20077;-80
2022/12/20 13:08:55;;;;;;;12.02;7.95;;;9.80;99.90;;;;;;4977665;28;20052;-78
2022/12/20 13:11:39;;;;;;;11.52;8.13;;;9.80;99.90;;;;;;4994538;28;20042;-79
2022/12/20 13:14:23;;;;;;;13.70;9.32;;;9.80;99.90;;;;;;4977153;28;20030;-79
2022/12/20 13:16:52;;;;;;;14.38;9.07;;;9.80;99.90;;;;;;4977768;28;20042;-79
2022/12/20 13:19:33;;;;;;;15.00;8.57;;;9.80;99.90;;;;;;4975620;28;20053;-80
2022/12/20 13:22:05;;;;;;;11.55;9.00;;;9.80;99.90;;;;;;4989081;28;20030;-79
2022/12/20 13:24:35;;;;;;;11.48;8.63;;;9.80;99.90;;;;;;4977308;28;20052;-79
2022/12/20 13:27:02;;;;;;;11.15;9.07;;;9.80;99.90;;;;;;5003307;28;20046;-79
2022/12/20 13:29:35;;;;;;;10.63;8.45;;;9.80;99.90;;;;;;4992586;28;20121;-79
2022/12/20 13:32:01;;;;;;;12.98;9.15;;;9.80;99.90;;;;;;4991760;28;20045;-78
2022/12/20 13:34:52;;;;;;;11.77;9.40;;;9.90;99.90;;;;;;4985546;28;20042;-79
2022/12/20 13:37:48;;;;;;;10.75;8.98;;;9.80;99.90;;;;;;4984217;28;20125;-80
2022/12/20 13:40:35;;;;;;;10.57;9.15;;;9.90;99.90;;;;;;4994132;28;20034;-79